Time;durP1;ratioP1;P1;durP2;ratioP2;P2;SDS_P1;SDS_P2;PMS_P1;PMS_P2;Temp;Humidity;BMP_temperature;BMP_pressure;BME280_temperature;BME280_humidity;BME280_pressure;Samples;Min_cycle;Max_cycle;Signal;HPM_P1;HPM_P2
2021/10/17 00:00:06;;;;;;;31.60;15.17;;;;;;;8.63;89.80;96611.09;5090583;28;20568;-70
2021/10/17 00:02:33;;;;;;;34.33;15.47;;;;;;;8.30;89.94;96605.81;5087655;28;20210;-70
2021/10/17 00:04:59;;;;;;;35.03;15.23;;;;;;;8.32;88.98;96618.78;5089484;28;20627;-69
2021/10/17 00:07:27;;;;;;;31.63;14.87;;;;;;;8.47;89.81;96609.34;5087958;28;20203;-70
2021/10/17 00:09:54;;;;;;;27.53;13.70;;;;;;;7.99;88.66;96614.22;5089288;28;21190;-70
2021/10/17 00:12:20;;;;;;;27.23;14.07;;;;;;;8.13;88.63;96616.28;5092740;28;20203;-70
2021/10/17 00:14:46;;;;;;;35.10;15.13;;;;;;;8.11;89.54;96605.16;5086670;28;20222;-70
2021/10/17 00:17:13;;;;;;;29.33;14.83;;;;;;;8.13;89.85;96608.44;5085380;28;20786;-69
2021/10/17 00:19:39;;;;;;;29.40;14.17;;;;;;;8.13;89.42;96611.06;5085044;28;20211;-71
2021/10/17 00:22:06;;;;;;;29.43;14.33;;;;;;;8.15;89.08;96614.38;5091824;28;20191;-70
2021/10/17 00:24:34;;;;;;;29.07;14.00;;;;;;;8.31;89.03;96611.88;5093316;28;20818;-70
2021/10/17 00:27:00;;;;;;;32.97;15.60;;;;;;;8.23;89.89;96619.69;5088015;28;20200;-71
2021/10/17 00:29:27;;;;;;;31.77;15.70;;;;;;;8.27;90.73;96613.16;5087838;28;20227;-71
2021/10/17 00:31:53;;;;;;;32.27;14.43;;;;;;;8.28;90.76;96615.63;5088403;28;20207;-70
2021/10/17 00:34:20;;;;;;;31.77;15.90;;;;;;;8.40;90.22;96610.94;5090115;28;20200;-71
2021/10/17 00:36:47;;;;;;;33.67;16.00;;;;;;;8.56;91.02;96609.22;5087393;28;20206;-70
2021/10/17 00:39:14;;;;;;;35.50;17.43;;;;;;;8.38;92.27;96611.09;5090110;28;20576;-71
2021/10/17 00:41:43;;;;;;;38.80;17.40;;;;;;;8.58;92.23;96608.09;5087786;28;20199;-70
2021/10/17 00:44:09;;;;;;;41.90;18.00;;;;;;;8.49;91.11;96614.28;5087323;28;20210;-70
2021/10/17 00:46:36;;;;;;;35.17;17.10;;;;;;;8.43;91.36;96608.84;5089428;28;20997;-70
2021/10/17 00:49:02;;;;;;;30.40;15.47;;;;;;;8.56;90.50;96607.41;5089563;28;20211;-71
2021/10/17 00:51:29;;;;;;;33.77;16.20;;;;;;;8.58;91.09;96610.72;5086933;28;20224;-69
2021/10/17 00:53:56;;;;;;;37.37;17.83;;;;;;;8.50;91.89;96613.31;5089087;28;20196;-70
2021/10/17 00:56:22;;;;;;;33.73;16.17;;;;;;;8.43;91.20;96602.78;5086045;28;20215;-71
2021/10/17 00:58:50;;;;;;;33.33;15.23;;;;;;;8.71;90.50;96598.00;5084851;28;20199;-70
2021/10/17 01:01:17;;;;;;;37.40;16.03;;;;;;;8.35;91.03;96605.31;5083967;28;20517;-69
2021/10/17 01:03:43;;;;;;;31.70;15.47;;;;;;;8.42;89.99;96595.88;5089329;28;20203;-70
2021/10/17 01:06:12;;;;;;;36.43;16.30;;;;;;;8.29;90.48;96598.09;5087191;28;20274;-70
2021/10/17 01:08:39;;;;;;;30.60;15.27;;;;;;;8.20;90.57;96602.44;5089175;28;20460;-71
2021/10/17 01:11:06;;;;;;;30.77;14.47;;;;;;;8.17;90.33;96601.91;5086650;28;20254;-69
2021/10/17 01:13:32;;;;;;;30.60;14.20;;;;;;;8.24;89.47;96597.72;5090801;28;20207;-71
2021/10/17 01:16:00;;;;;;;31.80;15.20;;;;;;;8.39;88.71;96596.16;5084360;28;20226;-70
2021/10/17 01:18:27;;;;;;;31.73;15.20;;;;;;;8.29;88.67;96591.03;5090991;28;20202;-70
2021/10/17 01:20:55;;;;;;;29.67;14.77;;;;;;;8.43;88.47;96593.06;5087365;28;20196;-69
2021/10/17 01:23:22;;;;;;;31.93;15.93;;;;;;;8.14;88.56;96586.50;5087871;28;20597;-69
2021/10/17 01:25:49;;;;;;;34.53;16.07;;;;;;;8.21;89.37;96584.88;5084192;28;20862;-69
2021/10/17 01:28:15;;;;;;;36.30;16.10;;;;;;;7.92;90.06;96579.09;5091979;28;20203;-70
2021/10/17 01:30:42;;;;;;;36.70;17.43;;;;;;;8.02;89.62;96588.50;5084659;28;20229;-69
2021/10/17 01:33:09;;;;;;;30.93;15.20;;;;;;;7.85;90.64;96585.09;5090317;28;20665;-69
2021/10/17 01:35:36;;;;;;;35.60;16.53;;;;;;;7.87;90.94;96583.97;5084732;28;20223;-70
2021/10/17 01:38:06;;;;;;;31.20;14.47;;;;;;;7.91;90.80;96580.06;5086885;28;20202;-70
2021/10/17 01:40:33;;;;;;;33.53;15.70;;;;;;;7.86;89.98;96574.44;5086237;28;20200;-69
2021/10/17 01:42:59;;;;;;;31.80;15.73;;;;;;;7.79;89.74;96576.03;5089908;28;20199;-70
2021/10/17 01:45:26;;;;;;;28.10;14.13;;;;;;;7.68;88.60;96578.06;5086413;28;20211;-69
2021/10/17 01:47:53;;;;;;;27.40;14.37;;;;;;;7.62;88.82;96574.22;5083345;28;20195;-69
2021/10/17 01:50:21;;;;;;;30.33;14.73;;;;;;;7.52;88.76;96585.78;5083802;28;20242;-69
2021/10/17 01:52:48;;;;;;;29.37;13.90;;;;;;;7.45;88.74;96577.69;5089633;28;20191;-70
2021/10/17 01:55:16;;;;;;;31.67;14.50;;;;;;;7.75;89.45;96574.69;5088328;28;20234;-70
2021/10/17 01:57:43;;;;;;;27.30;13.87;;;;;;;7.38;89.38;96576.66;5087254;28;20200;-70
2021/10/17 02:00:10;;;;;;;31.30;13.97;;;;;;;7.51;89.90;96576.25;5085397;28;20214;-71
2021/10/17 02:02:36;;;;;;;184.83;17.03;;;;;;;7.24;89.82;96580.75;5089518;28;20200;-71
2021/10/17 02:05:03;;;;;;;100.43;15.13;;;;;;;7.10;90.59;96579.44;5085115;28;20226;-70
2021/10/17 02:07:29;;;;;;;50.63;17.30;;;;;;;7.22;91.29;96577.44;5089603;28;20212;-69
2021/10/17 02:09:56;;;;;;;43.97;15.60;;;;;;;7.07;91.15;96584.19;5093519;28;20227;-70
2021/10/17 02:12:26;;;;;;;77.87;17.97;;;;;;;7.56;90.59;96574.84;5090872;28;20211;-71
2021/10/17 02:14:53;;;;;;;65.33;19.17;;;;;;;7.31;91.78;96577.38;5091674;28;20297;-70
2021/10/17 02:17:20;;;;;;;82.63;17.67;;;;;;;7.28;91.55;96582.94;5088281;28;21065;-69
2021/10/17 02:19:46;;;;;;;46.13;17.20;;;;;;;7.25;91.60;96577.97;5088545;28;20200;-70
2021/10/17 02:22:13;;;;;;;38.37;17.83;;;;;;;7.34;91.29;96577.94;5090686;28;20199;-70
2021/10/17 02:24:39;;;;;;;54.97;17.07;;;;;;;7.32;91.09;96573.81;5089229;28;20238;-69
2021/10/17 02:27:06;;;;;;;49.13;16.83;;;;;;;7.37;92.08;96575.00;5090475;28;20212;-70
2021/10/17 02:29:34;;;;;;;48.43;18.90;;;;;;;7.54;92.36;96574.16;5092333;28;20199;-70
2021/10/17 02:32:00;;;;;;;41.83;19.47;;;;;;;7.38;92.68;96566.16;5089749;28;20240;-69
2021/10/17 02:36:49;;;;;;;43.40;18.63;;;;;;;7.94;91.67;96558.75;5055771;27;20558;-70
2021/10/17 02:39:15;;;;;;;46.83;17.67;;;;;;;7.77;91.86;96570.09;5055412;28;20207;-71
2021/10/17 02:41:42;;;;;;;56.73;18.80;;;;;;;7.68;92.46;96565.75;5055474;28;20688;-71
2021/10/17 02:44:08;;;;;;;42.63;18.23;;;;;;;7.82;92.04;96575.72;5055755;28;20204;-71
2021/10/17 02:46:35;;;;;;;49.60;18.63;;;;;;;7.71;92.67;96572.50;5054192;28;20216;-71
2021/10/17 02:49:01;;;;;;;44.47;17.93;;;;;;;7.75;92.14;96572.06;5055626;28;20201;-71
2021/10/17 02:51:28;;;;;;;32.13;16.40;;;;;;;7.86;91.60;96571.81;5055082;28;20204;-71
2021/10/17 02:53:55;;;;;;;35.90;16.47;;;;;;;8.18;90.61;96570.25;5054673;28;20585;-71
2021/10/17 02:56:22;;;;;;;35.97;17.10;;;;;;;7.99;91.34;96569.59;5054428;28;20224;-72
2021/10/17 02:58:48;;;;;;;36.47;16.40;;;;;;;7.93;90.90;96570.25;5054911;28;20204;-71
2021/10/17 03:01:15;;;;;;;33.83;16.30;;;;;;;7.97;91.06;96568.97;5054616;28;20212;-72
2021/10/17 03:03:41;;;;;;;37.10;16.47;;;;;;;7.96;91.84;96562.88;5054870;28;20208;-70
2021/10/17 03:06:08;;;;;;;34.10;16.87;;;;;;;7.73;91.80;96568.75;5054232;28;20217;-71
2021/10/17 03:08:34;;;;;;;32.40;15.80;;;;;;;7.82;92.29;96575.72;5054509;28;20203;-70
2021/10/17 03:11:02;;;;;;;29.87;15.33;;;;;;;8.09;91.92;96567.72;5054717;28;20215;-71
2021/10/17 03:13:29;;;;;;;31.97;15.63;;;;;;;7.90;91.66;96571.38;5053844;28;20209;-71
2021/10/17 03:15:57;;;;;;;30.23;15.37;;;;;;;7.86;91.53;96577.06;5053783;28;20235;-71
2021/10/17 03:18:23;;;;;;;29.57;15.67;;;;;;;7.93;91.98;96584.19;5054092;28;20208;-70
2021/10/17 03:20:50;;;;;;;31.37;14.83;;;;;;;7.74;92.15;96572.19;5054566;28;20205;-71
2021/10/17 03:23:16;;;;;;;28.37;14.77;;;;;;;7.76;92.10;96570.25;5054421;28;21029;-72
2021/10/17 03:25:43;;;;;;;31.83;15.60;;;;;;;7.59;92.12;96577.16;5055157;28;20217;-71
2021/10/17 03:28:11;;;;;;;32.83;16.50;;;;;;;7.92;92.82;96576.47;5054599;28;20204;-71
2021/10/17 03:30:37;;;;;;;35.27;17.17;;;;;;;7.55;93.09;96573.19;5053318;28;20696;-71
2021/10/17 03:33:04;;;;;;;28.97;15.63;;;;;;;7.56;93.32;96569.59;5054705;28;20205;-71
2021/10/17 03:35:30;;;;;;;30.83;16.53;;;;;;;7.62;92.50;96582.09;5053547;28;20239;-70
2021/10/17 03:37:57;;;;;;;36.07;17.30;;;;;;;7.63;92.90;96578.50;5053651;28;20212;-72
2021/10/17 03:40:23;;;;;;;36.90;17.50;;;;;;;7.66;92.67;96575.59;5053956;28;20208;-71
2021/10/17 03:42:50;;;;;;;43.17;17.57;;;;;;;7.29;94.73;96582.78;5054084;28;20209;-71
2021/10/17 03:45:18;;;;;;;36.70;17.43;;;;;;;7.74;94.31;96583.53;5053369;28;20224;-71
2021/10/17 03:47:44;;;;;;;38.13;17.30;;;;;;;7.40;94.10;96569.44;5043062;28;21250;-71
2021/10/17 03:50:11;;;;;;;40.07;17.17;;;;;;;7.58;94.32;96578.13;5040583;28;20228;-71
2021/10/17 03:52:37;;;;;;;40.53;16.47;;;;;;;7.35;94.92;96581.34;5040827;28;20209;-70
2021/10/17 03:55:05;;;;;;;40.30;17.43;;;;;;;7.60;94.18;96576.19;5040492;28;20225;-70
2021/10/17 03:57:31;;;;;;;37.37;16.30;;;;;;;7.36;94.66;96580.41;5041024;28;20580;-71
2021/10/17 03:59:57;;;;;;;38.03;16.73;;;;;;;7.62;94.02;96581.28;5040725;28;20220;-71
2021/10/17 04:02:25;;;;;;;38.10;16.83;;;;;;;7.89;94.64;96579.38;5041003;28;20201;-70
2021/10/17 04:04:52;;;;;;;35.43;16.20;;;;;;;7.50;94.53;96575.44;5040243;28;21106;-70
2021/10/17 04:07:18;;;;;;;40.33;17.83;;;;;;;7.53;94.33;96580.38;5039686;28;20228;-71
2021/10/17 04:09:45;;;;;;;42.67;17.33;;;;;;;7.62;95.07;96576.84;5040196;28;20205;-72
2021/10/17 04:12:11;;;;;;;40.80;17.67;;;;;;;7.75;94.65;96576.47;5040668;28;20526;-71
2021/10/17 04:14:38;;;;;;;52.60;19.23;;;;;;;7.85;95.07;96569.34;5040487;28;20233;-72
2021/10/17 04:17:04;;;;;;;42.77;18.03;;;;;;;7.88;94.93;96569.88;5039835;28;20225;-71
2021/10/17 04:19:32;;;;;;;48.60;19.40;;;;;;;8.05;95.21;96569.00;5040182;28;20213;-70
2021/10/17 04:21:59;;;;;;;47.93;19.70;;;;;;;7.84;95.35;96573.78;5040895;28;20209;-70
2021/10/17 04:24:25;;;;;;;42.37;19.00;;;;;;;7.96;95.38;96568.13;5040511;28;20216;-71
2021/10/17 04:26:52;;;;;;;69.27;17.87;;;;;;;7.72;96.25;96569.72;5039109;28;20205;-71
2021/10/17 04:29:18;;;;;;;52.23;20.00;;;;;;;7.80;97.23;96575.03;5040699;28;20216;-71
2021/10/17 04:31:45;;;;;;;45.90;18.67;;;;;;;8.02;96.30;96571.94;5040564;28;20958;-71
2021/10/17 04:34:12;;;;;;;48.80;19.40;;;;;;;7.98;96.85;96575.81;5039904;28;20205;-71
2021/10/17 04:36:40;;;;;;;41.80;16.93;;;;;;;7.99;96.23;96570.44;5038985;28;20271;-70
2021/10/17 04:39:07;;;;;;;48.67;16.20;;;;;;;7.93;96.29;96567.63;5041345;28;20205;-70
2021/10/17 04:41:34;;;;;;;44.63;17.27;;;;;;;7.94;96.86;96566.63;5039773;28;20576;-71
2021/10/17 04:44:02;;;;;;;53.80;18.33;;;;;;;8.10;96.63;96566.75;5039397;28;21074;-71
2021/10/17 04:46:28;;;;;;;51.07;18.23;;;;;;;8.02;95.48;96577.19;5039598;28;20224;-71
2021/10/17 04:48:55;;;;;;;64.53;17.77;;;;;;;7.98;95.62;96562.72;5040269;28;20297;-72
2021/10/17 04:51:21;;;;;;;54.97;18.07;;;;;;;7.82;96.42;96559.97;5039114;28;20212;-71
2021/10/17 04:53:49;;;;;;;44.37;15.13;;;;;;;7.78;97.01;96563.03;5039566;28;20575;-71
2021/10/17 04:56:15;;;;;;;55.40;17.53;;;;;;;7.64;97.26;96556.56;5038916;28;20236;-71
2021/10/17 04:58:42;;;;;;;64.03;17.10;;;;;;;7.45;97.92;96561.16;5038671;28;20211;-71
2021/10/17 05:01:09;;;;;;;39.60;16.80;;;;;;;7.67;98.00;96560.69;5039629;28;20212;-72
2021/10/17 05:03:35;;;;;;;36.50;14.73;;;;;;;7.43;97.94;96568.31;5040168;28;20243;-70
2021/10/17 05:06:03;;;;;;;38.53;17.17;;;;;;;7.75;97.44;96555.50;5038809;28;20232;-72
2021/10/17 05:08:30;;;;;;;48.73;18.37;;;;;;;7.84;97.57;96563.28;5040187;28;20232;-72
2021/10/17 05:10:58;;;;;;;65.20;18.57;;;;;;;8.18;98.26;96559.75;5039848;28;20198;-71
2021/10/17 05:13:24;;;;;;;73.03;16.93;;;;;;;7.93;97.56;96560.56;5039224;28;20205;-72
2021/10/17 05:15:51;;;;;;;58.37;17.37;;;;;;;7.87;97.78;96562.97;5038341;28;20229;-71
2021/10/17 05:18:17;;;;;;;44.17;16.43;;;;;;;7.96;97.52;96567.31;5039457;28;20205;-71
2021/10/17 05:20:44;;;;;;;57.00;13.93;;;;;;;7.51;98.25;96566.59;5039289;28;20232;-71
2021/10/17 05:23:11;;;;;;;81.07;16.93;;;;;;;7.40;98.49;96566.81;5039756;28;20212;-71
2021/10/17 05:25:38;;;;;;;57.87;16.07;;;;;;;7.31;98.88;96565.09;5039108;28;20711;-71
2021/10/17 05:28:06;;;;;;;57.57;17.10;;;;;;;7.84;98.43;96563.28;5039829;28;20205;-71
2021/10/17 05:30:33;;;;;;;71.50;18.50;;;;;;;7.83;98.38;96561.63;5038738;28;20205;-72
2021/10/17 05:33:01;;;;;;;45.03;17.83;;;;;;;8.08;98.18;96566.91;5039005;28;20228;-72
2021/10/17 05:35:27;;;;;;;64.03;17.53;;;;;;;7.92;97.88;96569.41;5043224;28;20323;-71
2021/10/17 05:37:54;;;;;;;41.50;18.43;;;;;;;7.97;97.85;96568.97;5043939;28;20209;-71
2021/10/17 05:40:21;;;;;;;56.00;17.93;;;;;;;7.70;97.98;96569.06;5044759;28;20213;-71
2021/10/17 05:42:47;;;;;;;60.43;16.57;;;;;;;7.72;96.69;96571.53;5045016;28;20209;-71
2021/10/17 05:45:15;;;;;;;64.03;17.27;;;;;;;7.84;96.77;96568.53;5044032;28;20228;-70
2021/10/17 05:47:42;;;;;;;40.60;17.57;;;;;;;7.87;96.32;96565.59;5042892;28;20205;-70
2021/10/17 05:50:09;;;;;;;46.27;17.47;;;;;;;8.04;97.33;96560.31;5043375;28;20223;-72
2021/10/17 05:52:35;;;;;;;51.73;16.60;;;;;;;7.87;97.08;96568.22;5043325;28;20209;-71
2021/10/17 05:55:02;;;;;;;55.43;17.43;;;;;;;7.80;97.78;96568.97;5044189;28;20240;-71
2021/10/17 05:57:28;;;;;;;46.47;17.27;;;;;;;7.85;97.53;96570.16;5042428;28;20221;-72
2021/10/17 05:59:55;;;;;;;54.03;15.50;;;;;;;7.71;97.39;96570.69;5042854;28;20205;-71
2021/10/17 06:02:23;;;;;;;62.73;16.77;;;;;;;7.87;97.43;96573.47;5042717;28;20988;-71
2021/10/17 06:04:49;;;;;;;54.63;16.70;;;;;;;7.56;97.82;96584.50;5042789;28;20239;-70
2021/10/17 06:07:16;;;;;;;59.97;17.10;;;;;;;7.61;97.80;96583.09;5042530;28;20205;-71
2021/10/17 06:09:42;;;;;;;54.50;16.70;;;;;;;7.68;98.25;96589.38;5041668;28;20319;-71
2021/10/17 06:12:09;;;;;;;54.70;18.73;;;;;;;7.66;97.87;96585.25;5042418;28;20212;-72
2021/10/17 06:14:36;;;;;;;59.30;16.33;;;;;;;7.33;98.92;96594.63;5041090;28;20225;-70
2021/10/17 06:17:02;;;;;;;44.80;17.20;;;;;;;7.60;98.79;96591.94;5041054;28;20209;-72
2021/10/17 06:19:30;;;;;;;47.73;19.17;;;;;;;7.76;99.18;96594.69;5040596;28;20205;-71
2021/10/17 06:21:57;;;;;;;74.30;17.87;;;;;;;7.70;97.87;96594.47;5041711;28;20205;-71
2021/10/17 06:24:24;;;;;;;63.00;17.63;;;;;;;7.83;97.86;96597.53;5040119;28;20850;-71
2021/10/17 06:26:50;;;;;;;52.60;19.33;;;;;;;7.86;97.79;96594.63;5035756;28;21042;-69
2021/10/17 06:29:17;;;;;;;88.27;17.00;;;;;;;7.72;97.59;96606.44;5037263;28;20201;-70
2021/10/17 06:31:43;;;;;;;73.27;15.33;;;;;;;7.35;98.60;96604.94;5037879;28;20212;-68
2021/10/17 06:34:10;;;;;;;77.13;16.20;;;;;;;7.51;97.16;96603.31;5038130;28;20205;-69
2021/10/17 06:36:38;;;;;;;101.43;16.40;;;;;;;7.62;97.66;96608.31;5037179;28;20229;-68
2021/10/17 06:39:04;;;;;;;54.40;17.13;;;;;;;7.47;98.09;96612.47;5037775;28;20704;-69
2021/10/17 06:41:31;;;;;;;55.83;16.63;;;;;;;7.57;97.70;96613.19;5040240;28;20205;-70
2021/10/17 06:43:57;;;;;;;44.67;13.93;;;;;;;7.33;98.24;96614.75;5042644;28;20205;-71
2021/10/17 06:46:24;;;;;;;65.40;14.33;;;;;;;7.18;98.96;96618.03;5048193;28;20976;-72
2021/10/17 06:48:51;;;;;;;81.67;17.63;;;;;;;7.34;99.04;96616.41;5048048;28;20767;-71
2021/10/17 06:51:17;;;;;;;68.53;13.27;;;;;;;7.05;99.41;96621.00;5049492;28;20209;-71
2021/10/17 06:53:45;;;;;;;69.37;16.63;;;;;;;7.41;99.66;96620.91;5043007;28;20209;-71
2021/10/17 06:56:11;;;;;;;71.60;16.00;;;;;;;6.99;100.00;96629.44;5045134;28;20592;-71
2021/10/17 06:58:38;;;;;;;77.13;14.57;;;;;;;6.80;100.00;96626.09;5036066;28;20205;-69
2021/10/17 07:01:04;;;;;;;119.77;17.53;;;;;;;6.70;100.00;96635.78;5045646;28;20201;-71
2021/10/17 07:03:31;;;;;;;58.83;11.77;;;;;;;6.53;100.00;96636.53;5037560;28;20260;-70
2021/10/17 07:05:58;;;;;;;48.50;16.30;;;;;;;6.96;100.00;96632.38;5047734;28;20237;-70
2021/10/17 07:08:24;;;;;;;72.47;17.27;;;;;;;7.03;100.00;96638.66;5043463;28;20202;-71
2021/10/17 07:10:52;;;;;;;50.37;16.67;;;;;;;7.43;100.00;96628.63;5046120;28;20502;-72
2021/10/17 07:13:19;;;;;;;70.07;18.33;;;;;;;7.26;100.00;96643.34;5048791;28;20224;-72
2021/10/17 07:15:45;;;;;;;70.43;17.60;;;;;;;7.31;100.00;96633.25;5048647;28;20232;-70
2021/10/17 07:18:12;;;;;;;33.23;14.53;;;;;;;8.10;100.00;96632.34;5049124;28;20224;-71
2021/10/17 07:20:38;;;;;;;56.70;21.00;;;;;;;8.82;99.13;96631.88;5031129;28;20206;-71
2021/10/17 07:23:05;;;;;;;47.87;17.63;;;;;;;9.22;98.85;96629.41;5039318;28;20212;-71
2021/10/17 07:25:31;;;;;;;38.97;15.77;;;;;;;9.73;97.46;96630.03;5054531;28;20221;-71
2021/10/17 07:27:59;;;;;;;34.70;18.03;;;;;;;9.61;90.05;96638.38;5048794;28;20221;-71
2021/10/17 07:30:26;;;;;;;38.77;15.37;;;;;;;8.92;91.51;96639.63;5051211;28;20208;-71
2021/10/17 07:32:53;;;;;;;52.37;15.10;;;;;;;8.66;92.37;96647.53;5052979;28;20204;-71
2021/10/17 07:35:20;;;;;;;33.77;15.13;;;;;;;8.33;93.86;96639.63;5053540;28;20229;-71
2021/10/17 07:37:46;;;;;;;56.97;14.83;;;;;;;8.34;93.49;96649.16;5053273;28;20283;-71
2021/10/17 07:40:13;;;;;;;48.07;15.80;;;;;;;8.22;94.42;96646.91;5053348;28;20197;-71
2021/10/17 07:42:39;;;;;;;65.30;15.13;;;;;;;8.24;94.13;96645.78;5051830;28;20216;-72
2021/10/17 07:45:08;;;;;;;66.60;15.33;;;;;;;8.31;94.30;96641.59;5047108;28;20217;-70
2021/10/17 07:47:35;;;;;;;55.10;14.90;;;;;;;8.17;96.01;96644.75;5048205;28;20209;-71
2021/10/17 07:50:02;;;;;;;65.00;15.33;;;;;;;8.00;95.72;96658.66;5053129;28;20221;-72
2021/10/17 07:52:29;;;;;;;46.70;14.73;;;;;;;7.77;96.81;96654.03;5050115;28;20672;-71
2021/10/17 07:54:55;;;;;;;77.00;16.63;;;;;;;7.95;96.32;96650.44;5049704;28;20228;-72
2021/10/17 07:57:22;;;;;;;40.50;15.87;;;;;;;8.20;96.74;96646.25;5049828;28;20225;-72
2021/10/17 07:59:48;;;;;;;40.53;16.80;;;;;;;8.17;98.23;96646.53;5049557;28;20200;-72
2021/10/17 08:02:16;;;;;;;40.67;18.07;;;;;;;8.58;96.77;96655.38;5051228;28;20205;-71
2021/10/17 08:04:47;;;;;;;53.20;17.40;;;;;;;8.38;96.26;96657.56;5042664;28;20226;-70
2021/10/17 08:07:14;;;;;;;49.63;18.03;;;;;;;8.59;95.67;96662.28;5049028;28;20205;-71
2021/10/17 08:09:41;;;;;;;57.33;17.03;;;;;;;8.55;94.43;96660.97;5049693;28;20213;-71
2021/10/17 08:12:08;;;;;;;41.93;17.13;;;;;;;8.47;96.64;96659.25;5049281;28;20205;-72
2021/10/17 08:14:34;;;;;;;50.00;14.47;;;;;;;8.18;95.86;96670.00;5050524;28;20220;-71
2021/10/17 08:17:01;;;;;;;38.27;15.33;;;;;;;8.26;96.76;96658.75;5045276;28;20713;-71
2021/10/17 08:19:29;;;;;;;50.37;15.87;;;;;;;8.72;96.32;96667.13;5050247;28;20210;-71
2021/10/17 08:21:55;;;;;;;55.00;16.17;;;;;;;8.41;95.85;96657.22;5050281;28;20205;-72
2021/10/17 08:24:22;;;;;;;42.10;17.23;;;;;;;8.38;96.57;96662.81;5051981;28;20213;-71
2021/10/17 08:26:48;;;;;;;74.33;16.50;;;;;;;8.26;96.67;96664.00;5052861;28;20206;-71
2021/10/17 08:29:15;;;;;;;53.47;16.07;;;;;;;8.29;96.03;96668.97;5052014;28;20673;-71
2021/10/17 08:31:41;;;;;;;77.17;16.67;;;;;;;8.16;97.75;96663.25;5052112;28;20216;-70
2021/10/17 08:34:07;;;;;;;38.87;12.27;;;;;;;8.09;96.83;96670.06;5051704;28;20208;-71
2021/10/17 08:36:35;;;;;;;35.40;15.80;;;;;;;8.39;97.85;96670.53;5051619;28;20260;-71
2021/10/17 08:39:02;;;;;;;41.00;13.77;;;;;;;8.19;97.79;96669.03;5050962;28;20216;-71
2021/10/17 08:41:28;;;;;;;65.97;15.90;;;;;;;8.40;96.24;96666.09;5052231;28;20224;-71
2021/10/17 08:43:55;;;;;;;49.97;15.27;;;;;;;7.91;97.95;96677.13;5051986;28;20213;-71
2021/10/17 08:46:22;;;;;;;40.47;15.63;;;;;;;8.33;98.17;96665.88;5051913;28;20728;-70
2021/10/17 08:48:54;;;;;;;51.13;16.47;;;;;;;8.83;97.06;96670.28;5051972;28;20205;-71
2021/10/17 08:51:24;;;;;;;41.13;17.43;;;;;;;8.99;97.11;96667.75;5050258;28;20211;-71
2021/10/17 08:53:52;;;;;;;44.33;15.70;;;;;;;8.68;95.74;96671.03;5051988;28;20201;-71
2021/10/17 08:56:19;;;;;;;42.93;16.27;;;;;;;8.85;96.25;96663.09;5051442;28;20232;-71
2021/10/17 08:58:46;;;;;;;40.60;18.70;;;;;;;8.85;96.65;96664.91;5051412;28;20232;-71
2021/10/17 09:01:14;;;;;;;52.20;13.97;;;;;;;8.48;97.00;96671.38;5051204;28;20205;-71
2021/10/17 09:03:41;;;;;;;41.23;15.37;;;;;;;8.65;95.92;96674.78;5049862;28;20290;-71
2021/10/17 09:06:17;;;;;;;36.13;13.40;;;;;;;9.05;95.91;96674.19;5051618;28;20224;-71
2021/10/17 09:08:44;;;;;;;46.57;17.47;;;;;;;8.86;97.03;96682.31;5051767;28;20708;-71
2021/10/17 09:11:13;;;;;;;45.70;16.83;;;;;;;8.79;98.68;96682.09;5050478;28;20224;-71
2021/10/17 09:14:04;;;;;;;71.57;17.53;;;;;;;8.54;97.93;96680.31;5052310;28;20201;-71
2021/10/17 09:16:35;;;;;;;39.97;17.07;;;;;;;9.17;97.32;96689.53;5050904;28;20229;-70
2021/10/17 09:19:09;;;;;;;44.83;15.13;;;;;;;8.80;96.65;96677.69;5051689;28;20209;-71
2021/10/17 09:21:36;;;;;;;42.17;17.73;;;;;;;8.92;97.32;96677.25;5051588;28;20207;-71
2021/10/17 09:24:03;;;;;;;39.43;17.43;;;;;;;9.09;96.30;96679.00;5050705;28;20206;-70
2021/10/17 09:26:32;;;;;;;68.93;18.40;;;;;;;9.25;94.40;96677.25;5049955;28;20217;-72
2021/10/17 09:28:59;;;;;;;52.67;17.10;;;;;;;9.13;94.71;96677.69;5050028;28;20225;-71
2021/10/17 09:31:25;;;;;;;37.73;16.30;;;;;;;8.72;96.30;96681.09;5051051;28;20214;-71
2021/10/17 09:33:54;;;;;;;42.70;15.80;;;;;;;9.21;97.27;96680.34;5050592;28;20694;-71
2021/10/17 09:36:23;;;;;;;36.53;16.70;;;;;;;9.50;96.54;96672.91;5050499;28;20233;-71
2021/10/17 09:38:52;;;;;;;49.40;13.87;;;;;;;8.66;96.20;96676.44;5050612;28;20224;-71
2021/10/17 09:41:21;;;;;;;48.33;14.80;;;;;;;8.63;97.75;96679.38;5051782;28;20213;-71
2021/10/17 09:43:55;;;;;;;40.50;16.37;;;;;;;9.07;97.19;96680.94;5051628;28;20205;-70
2021/10/17 09:46:22;;;;;;;48.57;18.37;;;;;;;9.01;97.39;96673.66;5050140;28;20628;-71
2021/10/17 09:48:49;;;;;;;44.00;17.40;;;;;;;9.33;96.63;96669.41;5050134;28;20201;-71
2021/10/17 09:51:17;;;;;;;52.67;17.57;;;;;;;9.24;95.51;96674.75;5050080;28;20212;-71
2021/10/17 09:53:46;;;;;;;51.17;17.83;;;;;;;9.42;95.64;96673.69;5049572;28;20209;-71
2021/10/17 09:56:33;;;;;;;40.57;18.47;;;;;;;9.83;94.15;96673.63;5048234;28;20717;-71
2021/10/17 09:59:04;;;;;;;43.43;18.63;;;;;;;9.86;94.86;96665.44;5049592;28;20220;-71
2021/10/17 10:01:31;;;;;;;42.67;17.70;;;;;;;9.71;94.97;96663.56;5049924;28;20201;-71
2021/10/17 10:03:59;;;;;;;42.63;17.87;;;;;;;9.69;96.78;96655.03;5050287;28;20208;-71
2021/10/17 10:06:27;;;;;;;52.77;18.13;;;;;;;9.88;94.95;96666.09;5049019;28;20236;-70
2021/10/17 10:08:57;;;;;;;46.20;18.00;;;;;;;10.06;93.82;96661.53;5049522;28;20220;-71
2021/10/17 10:11:25;;;;;;;47.93;18.83;;;;;;;10.13;93.74;96667.81;5050669;28;20212;-71
2021/10/17 10:13:54;;;;;;;53.77;18.00;;;;;;;9.74;93.33;96661.44;5049891;28;20197;-71
2021/10/17 10:16:23;;;;;;;40.63;18.47;;;;;;;10.11;93.19;96659.22;5050476;28;20593;-71
2021/10/17 10:18:53;;;;;;;45.40;18.80;;;;;;;10.10;92.60;96659.41;5050276;28;20227;-72
2021/10/17 10:21:20;;;;;;;39.80;17.43;;;;;;;10.05;92.47;96662.50;5050608;28;20619;-71
2021/10/17 10:23:48;;;;;;;54.77;18.33;;;;;;;9.96;92.78;96658.22;5049098;28;20205;-71
2021/10/17 10:26:16;;;;;;;43.67;18.40;;;;;;;10.06;95.54;96660.72;5050761;28;20221;-71
2021/10/17 10:28:43;;;;;;;43.83;18.93;;;;;;;10.18;93.39;96652.31;5050251;28;20279;-71
2021/10/17 10:31:46;;;;;;;48.27;17.23;;;;;;;10.54;92.00;96653.63;5050974;28;20205;-71
2021/10/17 10:34:35;;;;;;;42.77;18.27;;;;;;;10.49;91.71;96650.66;5050019;28;20220;-71
2021/10/17 10:37:13;;;;;;;39.10;18.30;;;;;;;10.71;91.86;96653.41;5050303;28;20224;-71
2021/10/17 10:40:09;;;;;;;45.63;18.80;;;;;;;10.80;91.60;96656.88;5050985;28;20212;-71
2021/10/17 10:42:37;;;;;;;46.13;19.50;;;;;;;10.28;93.38;96652.97;5046335;28;20236;-71
2021/10/17 10:45:20;;;;;;;45.87;18.70;;;;;;;10.72;91.53;96654.25;5050475;28;20225;-71
2021/10/17 10:47:48;;;;;;;44.67;18.43;;;;;;;10.61;92.24;96649.31;5050686;28;20204;-71
2021/10/17 10:50:15;;;;;;;39.07;17.10;;;;;;;10.34;92.18;96649.69;5048124;28;20202;-72
2021/10/17 10:52:44;;;;;;;42.20;17.63;;;;;;;10.22;93.17;96648.38;5051081;28;20193;-71
2021/10/17 10:55:34;;;;;;;47.20;20.00;;;;;;;10.61;92.46;96639.59;5044692;28;20229;-71
2021/10/17 10:58:22;;;;;;;43.93;19.53;;;;;;;10.72;91.56;96644.53;5051747;28;20591;-72
2021/10/17 11:00:49;;;;;;;44.73;18.63;;;;;;;10.43;91.49;96636.31;5050031;28;20570;-71
2021/10/17 11:03:16;;;;;;;43.53;19.73;;;;;;;10.67;91.11;96643.41;5055081;28;20201;-70
2021/10/17 11:06:19;;;;;;;46.10;20.00;;;;;;;11.16;90.68;96643.06;5054737;28;20228;-71
2021/10/17 11:09:19;;;;;;;44.03;20.03;;;;;;;11.32;89.99;96640.38;5051398;28;20201;-72
2021/10/17 11:11:47;;;;;;;44.37;19.67;;;;;;;10.93;90.84;96643.00;5054917;28;20677;-71
2021/10/17 11:14:15;;;;;;;48.20;21.03;;;;;;;10.82;91.20;96636.41;5054998;28;20212;-71
2021/10/17 11:16:41;;;;;;;47.63;19.87;;;;;;;10.79;90.00;96631.50;5055013;28;20201;-72
2021/10/17 11:19:09;;;;;;;46.63;20.83;;;;;;;10.85;91.35;96631.66;5055038;28;20229;-72
2021/10/17 11:21:35;;;;;;;47.60;21.00;;;;;;;10.71;91.63;96628.88;5054618;28;20208;-72
2021/10/17 11:24:02;;;;;;;51.60;22.03;;;;;;;10.95;90.86;96633.09;5054863;28;20209;-71
2021/10/17 11:26:29;;;;;;;50.43;21.23;;;;;;;10.97;90.36;96628.47;5054858;28;20668;-72
2021/10/17 11:28:59;;;;;;;45.90;19.87;;;;;;;11.11;90.39;96629.56;5053474;28;20654;-71